Time;durP1;ratioP1;P1;durP2;ratioP2;P2;SDS_P1;SDS_P2;PMS_P1;PMS_P2;Temp;Humidity;BMP_temperature;BMP_pressure;BME280_temperature;BME280_humidity;BME280_pressure;Samples;Min_cycle;Max_cycle;Signal;HPM_P1;HPM_P2
2022/01/26 00:06:36;;;;;;;1.52;1.13;;;22.00;47.50;;;;;;5083055;28;20038;-54
2022/01/26 00:09:02;;;;;;;1.50;1.05;;;22.00;47.40;;;;;;5083275;28;20036;-57
2022/01/26 00:11:31;;;;;;;1.37;1.20;;;22.00;47.40;;;;;;5082199;28;20097;-49
2022/01/26 00:13:58;;;;;;;1.73;1.25;;;22.10;47.50;;;;;;5083330;28;20029;-50
2022/01/26 00:16:37;;;;;;;2.08;1.45;;;22.10;47.50;;;;;;5082737;28;20021;-51
2022/01/26 00:19:04;;;;;;;1.88;1.40;;;22.00;47.50;;;;;;5083265;28;20033;-53
2022/01/26 00:21:37;;;;;;;1.38;1.27;;;22.00;47.60;;;;;;5082857;28;20041;-52
2022/01/26 00:29:37;;;;;;;1.88;1.25;;;21.90;47.40;;;;;;5076571;28;20032;-54
2022/01/26 00:40:33;;;;;;;2.20;1.20;;;22.00;47.60;;;;;;5082617;28;20027;-53
2022/01/26 00:43:07;;;;;;;1.75;1.17;;;21.90;47.50;;;;;;5082209;28;20064;-49
2022/01/26 00:45:36;;;;;;;2.05;1.30;;;21.90;47.40;;;;;;5067406;28;20083;-51
2022/01/26 00:48:05;;;;;;;1.58;1.10;;;21.90;47.40;;;;;;5081975;28;20032;-54
2022/01/26 00:50:32;;;;;;;1.65;1.17;;;22.00;47.50;;;;;;5082428;28;20021;-55
2022/01/26 00:52:58;;;;;;;;;;;22.00;47.50;;;;;;5082792;28;20444;-54
2022/01/26 00:55:24;;;;;;;1.45;1.20;;;22.00;47.60;;;;;;5081746;28;19952;-51
2022/01/26 00:57:50;;;;;;;1.75;1.20;;;21.90;47.60;;;;;;5082634;28;20074;-53
2022/01/26 01:00:19;;;;;;;1.58;1.23;;;21.90;47.50;;;;;;5080719;28;20044;-52
2022/01/26 01:02:45;;;;;;;1.33;1.13;;;21.90;47.50;;;;;;5081920;28;20036;-52
2022/01/26 01:05:21;;;;;;;1.67;1.35;;;21.90;47.40;;;;;;5082164;28;20114;-54
2022/01/26 01:07:49;;;;;;;2.08;1.20;;;21.80;47.40;;;;;;5081305;28;20045;-53
2022/01/26 01:10:19;;;;;;;2.05;1.30;;;21.90;47.60;;;;;;5082446;28;20021;-54
2022/01/26 01:12:46;;;;;;;1.33;1.13;;;21.90;47.60;;;;;;5082201;28;20021;-50
2022/01/26 01:15:12;;;;;;;1.40;1.20;;;21.90;47.70;;;;;;5081866;28;20036;-58
2022/01/26 01:17:46;;;;;;;1.10;1.00;;;21.90;47.60;;;;;;5081804;28;20060;-52
2022/01/26 01:20:36;;;;;;;1.13;1.00;;;21.90;47.50;;;;;;5077411;28;20079;-52
2022/01/26 01:31:08;;;;;;;2.25;1.00;;;21.90;47.60;;;;;;5082184;28;19912;-50
2022/01/26 01:33:38;;;;;;;1.65;1.20;;;21.80;47.50;;;;;;5082466;28;20032;-49
2022/01/26 01:36:06;;;;;;;1.60;1.08;;;21.80;47.60;;;;;;5081012;28;20066;-52
2022/01/26 01:38:34;;;;;;;1.10;0.90;;;21.80;47.50;;;;;;5082047;28;20065;-54
2022/01/26 01:41:00;;;;;;;1.05;0.93;;;21.70;47.40;;;;;;5081476;28;20063;-53
2022/01/26 01:43:26;;;;;;;1.90;1.10;;;21.70;47.60;;;;;;5082017;28;20063;-53
2022/01/26 01:45:53;;;;;;;1.58;1.23;;;21.80;47.60;;;;;;5081746;28;20031;-52
2022/01/26 01:48:26;;;;;;;1.27;1.08;;;21.80;47.60;;;;;;5082189;28;20036;-50
2022/01/26 01:50:54;;;;;;;1.27;1.08;;;21.80;47.70;;;;;;5066561;28;20041;-51
2022/01/26 01:53:29;;;;;;;1.10;0.90;;;21.80;47.60;;;;;;5082227;28;20028;-52
2022/01/26 01:55:55;;;;;;;1.83;0.98;;;21.70;47.40;;;;;;5081340;28;20032;-52
2022/01/26 01:58:21;;;;;;;1.33;1.10;;;21.70;47.40;;;;;;5082296;28;20035;-54
2022/01/26 02:00:47;;;;;;;3.88;1.35;;;21.70;47.60;;;;;;5083005;28;20057;-52
2022/01/26 02:03:13;;;;;;;1.33;1.00;;;21.70;47.60;;;;;;5085110;28;20043;-50
2022/01/26 02:05:39;;;;;;;0.95;0.80;;;21.80;47.60;;;;;;5085101;28;20017;-51
2022/01/26 02:08:05;;;;;;;1.17;1.00;;;21.80;47.80;;;;;;5085336;28;20573;-49
2022/01/26 02:10:33;;;;;;;1.45;0.90;;;21.70;47.60;;;;;;5085553;28;20055;-52
2022/01/26 02:13:02;;;;;;;1.67;0.95;;;21.70;47.50;;;;;;5085467;28;20115;-53
2022/01/26 02:15:46;;;;;;;1.20;1.10;;;21.70;47.50;;;;;;5085122;28;20028;-52
2022/01/26 02:18:38;;;;;;;0.80;0.80;;;21.70;47.60;;;;;;5063983;28;20107;-51
2022/01/26 02:51:43;;;;;;;1.35;0.98;;;21.50;47.60;;;;;;5084975;28;20070;-50
2022/01/26 02:54:34;;;;;;;1.30;0.93;;;21.60;47.70;;;;;;5084858;28;20031;-54
2022/01/26 03:02:07;;;;;;;2.05;1.50;;;21.60;47.60;;;;;;5083831;28;20060;-53
2022/01/26 03:04:49;;;;;;;1.67;1.05;;;21.50;47.60;;;;;;5084161;28;20047;-53
2022/01/26 03:07:41;;;;;;;1.20;1.10;;;21.50;47.60;;;;;;5084047;28;20677;-54
2022/01/26 03:10:14;;;;;;;1.00;0.90;;;21.50;47.70;;;;;;5084158;28;20049;-51
2022/01/26 03:13:07;;;;;;;1.52;1.02;;;21.60;47.70;;;;;;5083966;28;20028;-52
2022/01/26 03:20:57;;;;;;;1.20;1.00;;;21.50;47.50;;;;;;5083996;28;20032;-54
2022/01/26 03:33:56;;;;;;;1.55;1.17;;;21.50;47.60;;;;;;5083904;28;20029;-51
2022/01/26 03:36:26;;;;;;;1.17;0.98;;;21.50;47.60;;;;;;5083787;28;20028;-50
2022/01/26 03:39:00;;;;;;;1.50;1.17;;;21.40;47.60;;;;;;5083436;28;20182;-52
2022/01/26 03:44:05;;;;;;;1.95;1.13;;;21.40;47.70;;;;;;5083724;28;20028;-52
2022/01/26 03:46:31;;;;;;;1.27;1.00;;;21.50;47.70;;;;;;5083741;28;20021;-50
2022/01/26 03:48:57;;;;;;;1.30;1.15;;;21.50;47.70;;;;;;5082554;28;20043;-44
